Time;durP1;ratioP1;P1;durP2;ratioP2;P2;SDS_P1;SDS_P2;PMS_P1;PMS_P2;Temp;Humidity;BMP_temperature;BMP_pressure;BME280_temperature;BME280_humidity;BME280_pressure;Samples;Min_cycle;Max_cycle;Signal;HPM_P1;HPM_P2
2022/05/16 00:02:13;;;;;;;7.38;2.03;;;;;;;;;;5067662;28;20577;-61
2022/05/16 00:04:40;;;;;;;8.38;1.88;;;;;;;;;;5067956;28;20478;-61
2022/05/16 00:07:07;;;;;;;8.52;2.20;;;;;;;;;;5067511;28;20063;-61
2022/05/16 00:09:33;;;;;;;5.07;1.50;;;;;;;;;;5067568;28;20084;-61
2022/05/16 00:12:00;;;;;;;7.15;1.65;;;;;;;;;;5067774;28;20052;-61
2022/05/16 00:14:26;;;;;;;6.50;1.88;;;;;;;;;;5067028;28;20056;-61
2022/05/16 00:16:52;;;;;;;9.10;2.10;;;;;;;;;;5067578;28;20052;-61
2022/05/16 00:19:19;;;;;;;4.35;1.55;;;;;;;;;;5067357;28;20500;-61
2022/05/16 00:21:45;;;;;;;8.32;1.92;;;;;;;;;;5067936;28;20053;-61
2022/05/16 00:24:11;;;;;;;4.30;1.75;;;;;;;;;;5066651;28;20498;-61
2022/05/16 00:26:39;;;;;;;10.32;2.10;;;;;;;;;;5066430;28;20097;-61
2022/05/16 00:29:05;;;;;;;10.82;2.42;;;;;;;;;;5065595;28;20087;-61
2022/05/16 00:31:32;;;;;;;8.00;2.42;;;;;;;;;;5067585;28;20057;-61
2022/05/16 00:34:01;;;;;;;4.25;1.85;;;;;;;;;;5067193;28;20057;-61
2022/05/16 00:36:27;;;;;;;8.00;2.00;;;;;;;;;;5066544;28;20921;-60
2022/05/16 00:38:54;;;;;;;6.57;2.20;;;;;;;;;;5067626;28;20089;-61
2022/05/16 00:41:20;;;;;;;7.07;1.98;;;;;;;;;;5067363;28;20519;-61
2022/05/16 00:43:47;;;;;;;6.10;2.10;;;;;;;;;;5067187;28;20597;-60
2022/05/16 00:46:14;;;;;;;9.80;2.30;;;;;;;;;;5067077;28;20085;-62
2022/05/16 00:48:41;;;;;;;10.57;2.10;;;;;;;;;;5066147;28;20115;-60
2022/05/16 00:51:28;;;;;;;7.10;2.10;;;;;;;;;;5066428;28;20083;-60
2022/05/16 00:53:56;;;;;;;9.10;2.05;;;;;;;;;;5067390;28;20081;-60
2022/05/16 00:56:24;;;;;;;6.65;1.88;;;;;;;;;;5066809;28;20139;-60
2022/05/16 00:58:50;;;;;;;5.93;1.80;;;;;;;;;;5067046;28;20089;-60
2022/05/16 01:06:47;;;;;;;9.40;2.15;;;;;;;;;;5067087;28;20084;-60
2022/05/16 01:09:14;;;;;;;6.15;1.90;;;;;;;;;;5067021;28;20127;-60
2022/05/16 01:11:40;;;;;;;9.63;2.33;;;;;;;;;;5067462;28;20053;-60
2022/05/16 01:14:07;;;;;;;8.43;2.60;;;;;;;;;;5065731;28;20048;-61
2022/05/16 01:16:33;;;;;;;10.68;2.40;;;;;;;;;;5067340;28;20057;-60
2022/05/16 01:19:00;;;;;;;11.95;2.15;;;;;;;;;;5066396;28;20082;-60
2022/05/16 01:21:30;;;;;;;7.05;2.00;;;;;;;;;;5066744;28;20597;-60
2022/05/16 01:23:59;;;;;;;7.15;2.05;;;;;;;;;;5065980;28;20053;-60
2022/05/16 01:26:27;;;;;;;7.95;2.13;;;;;;;;;;5067062;28;20512;-61
2022/05/16 01:28:54;;;;;;;10.75;2.08;;;;;;;;;;5066755;28;20115;-60
2022/05/16 01:31:20;;;;;;;12.20;2.05;;;;;;;;;;5066703;28;20048;-60
2022/05/16 01:33:47;;;;;;;7.85;2.28;;;;;;;;;;5066772;28;20049;-60
2022/05/16 01:36:13;;;;;;;11.40;2.28;;;;;;;;;;5066275;28;20150;-60
2022/05/16 01:38:39;;;;;;;7.35;2.05;;;;;;;;;;5066143;28;20053;-60
2022/05/16 01:41:07;;;;;;;7.65;2.50;;;;;;;;;;5069457;28;20080;-60
2022/05/16 01:43:38;;;;;;;7.85;2.45;;;;;;;;;;5070063;28;20069;-60
2022/05/16 01:46:06;;;;;;;9.20;2.10;;;;;;;;;;5069926;28;20072;-60
2022/05/16 01:48:32;;;;;;;10.17;2.33;;;;;;;;;;5069521;28;20144;-60
2022/05/16 01:51:00;;;;;;;11.77;2.55;;;;;;;;;;5069553;28;20126;-60
2022/05/16 01:53:26;;;;;;;7.10;2.10;;;;;;;;;;5069350;28;20057;-60
2022/05/16 01:55:53;;;;;;;8.30;2.42;;;;;;;;;;5069668;28;20057;-60
2022/05/16 01:58:19;;;;;;;9.23;2.33;;;;;;;;;;5069427;28;20048;-60
2022/05/16 02:00:46;;;;;;;7.55;2.38;;;;;;;;;;5069539;28;20106;-60
2022/05/16 02:03:12;;;;;;;6.72;2.20;;;;;;;;;;5068499;28;20057;-60
2022/05/16 02:05:40;;;;;;;8.57;2.28;;;;;;;;;;5070206;28;20134;-60
2022/05/16 02:08:07;;;;;;;6.40;2.20;;;;;;;;;;5069231;28;20053;-61
2022/05/16 02:10:33;;;;;;;5.30;2.00;;;;;;;;;;5069882;28;20045;-60
2022/05/16 02:13:01;;;;;;;9.73;2.75;;;;;;;;;;5069297;28;20170;-60
2022/05/16 02:15:28;;;;;;;;;;;;;;;;;;5069327;28;20150;-61
2022/05/16 02:17:55;;;;;;;9.40;2.33;;;;;;;;;;5067873;28;43809;-60
2022/05/16 02:20:21;;;;;;;4.38;1.98;;;;;;;;;;5069061;28;20113;-61
2022/05/16 02:25:33;;;;;;;8.85;2.30;;;;;;;;;;5069103;28;20052;-61
2022/05/16 02:28:00;;;;;;;6.00;2.15;;;;;;;;;;5068423;28;20512;-61
2022/05/16 02:30:26;;;;;;;5.97;2.20;;;;;;;;;;5068569;28;20061;-60
2022/05/16 02:32:53;;;;;;;11.25;2.38;;;;;;;;;;5069449;28;20499;-60
2022/05/16 02:35:19;;;;;;;8.68;2.60;;;;;;;;;;5068973;28;20115;-60
2022/05/16 02:37:46;;;;;;;6.90;2.35;;;;;;;;;;5068835;28;20064;-60
2022/05/16 02:40:13;;;;;;;8.25;2.17;;;;;;;;;;5068312;28;20505;-61
2022/05/16 02:42:39;;;;;;;9.18;2.13;;;;;;;;;;5069348;28;20533;-60
2022/05/16 02:45:06;;;;;;;6.80;1.90;;;;;;;;;;5050262;28;20053;-60
2022/05/16 02:47:32;;;;;;;10.13;2.63;;;;;;;;;;5047524;28;20092;-60
2022/05/16 02:49:59;;;;;;;8.10;2.08;;;;;;;;;;5047927;28;20130;-60
2022/05/16 02:52:25;;;;;;;8.88;1.95;;;;;;;;;;5047238;28;20053;-60
2022/05/16 02:54:52;;;;;;;12.95;2.47;;;;;;;;;;5048273;28;20099;-60
2022/05/16 02:57:18;;;;;;;10.48;2.55;;;;;;;;;;5048436;28;20057;-61
2022/05/16 02:59:45;;;;;;;9.77;2.63;;;;;;;;;;5048466;28;20081;-61
2022/05/16 03:02:11;;;;;;;6.57;2.28;;;;;;;;;;5048439;28;20061;-61
2022/05/16 03:04:38;;;;;;;4.47;1.92;;;;;;;;;;5048826;28;20050;-61
2022/05/16 03:07:05;;;;;;;6.53;2.22;;;;;;;;;;5048891;28;20131;-60
2022/05/16 03:09:32;;;;;;;7.65;2.25;;;;;;;;;;5048252;28;20918;-61
2022/05/16 03:11:59;;;;;;;6.30;2.30;;;;;;;;;;5047647;28;20541;-61
2022/05/16 03:14:26;;;;;;;7.28;2.35;;;;;;;;;;5049011;28;20132;-61
2022/05/16 03:16:52;;;;;;;6.35;2.40;;;;;;;;;;5046501;28;20104;-61
2022/05/16 03:19:18;;;;;;;11.52;2.80;;;;;;;;;;5047318;28;20100;-61
2022/05/16 03:21:46;;;;;;;7.38;2.20;;;;;;;;;;5048184;28;20085;-60
2022/05/16 03:24:12;;;;;;;6.15;2.40;;;;;;;;;;5047929;28;20076;-60
2022/05/16 03:26:38;;;;;;;4.97;2.20;;;;;;;;;;5048405;28;21750;-61
2022/05/16 03:29:11;;;;;;;8.98;2.92;;;;;;;;;;5048198;28;20168;-61
2022/05/16 03:31:39;;;;;;;13.85;2.40;;;;;;;;;;5047747;28;20050;-60
2022/05/16 03:34:07;;;;;;;7.38;2.17;;;;;;;;;;5047923;28;20061;-60
2022/05/16 03:36:34;;;;;;;7.45;2.28;;;;;;;;;;5048445;28;20069;-60
2022/05/16 03:41:45;;;;;;;12.30;2.75;;;;;;;;;;5047752;28;20864;-61
2022/05/16 03:44:11;;;;;;;11.13;2.67;;;;;;;;;;5047769;28;20644;-61
2022/05/16 03:46:38;;;;;;;7.82;3.28;;;;;;;;;;5048009;28;20053;-60
2022/05/16 03:49:05;;;;;;;7.30;2.42;;;;;;;;;;5047653;28;20100;-61
2022/05/16 03:51:31;;;;;;;8.25;2.28;;;;;;;;;;5047620;28;20906;-61
2022/05/16 03:53:58;;;;;;;7.78;2.33;;;;;;;;;;5047243;28;20095;-61
2022/05/16 03:56:25;;;;;;;7.47;2.58;;;;;;;;;;5047782;28;20143;-60
2022/05/16 03:58:51;;;;;;;8.70;2.50;;;;;;;;;;5047552;28;20053;-60
2022/05/16 04:01:18;;;;;;;10.40;3.13;;;;;;;;;;5047169;28;21041;-60
2022/05/16 04:03:45;;;;;;;7.18;2.45;;;;;;;;;;5048158;28;20507;-60
2022/05/16 04:06:13;;;;;;;5.97;2.50;;;;;;;;;;5046495;28;20212;-60
2022/05/16 04:08:42;;;;;;;6.47;2.53;;;;;;;;;;5047056;28;20112;-60
2022/05/16 04:11:09;;;;;;;5.43;2.45;;;;;;;;;;5046767;28;20104;-61
2022/05/16 04:13:36;;;;;;;12.35;2.65;;;;;;;;;;5047383;28;20427;-61
2022/05/16 04:16:03;;;;;;;7.70;2.85;;;;;;;;;;5046589;28;20081;-60
2022/05/16 04:18:32;;;;;;;8.48;2.65;;;;;;;;;;5047017;28;20108;-60
2022/05/16 04:20:58;;;;;;;7.30;2.50;;;;;;;;;;5047451;28;20053;-61
2022/05/16 04:23:25;;;;;;;9.48;3.17;;;;;;;;;;5046968;28;20285;-61
2022/05/16 04:25:51;;;;;;;8.18;2.50;;;;;;;;;;5047295;28;20504;-61
2022/05/16 04:28:17;;;;;;;6.25;2.90;;;;;;;;;;5046653;28;20111;-61
2022/05/16 04:30:44;;;;;;;5.65;2.33;;;;;;;;;;5046250;28;20084;-60
2022/05/16 04:33:10;;;;;;;6.47;2.53;;;;;;;;;;5047654;28;20086;-60
2022/05/16 04:35:37;;;;;;;7.40;2.63;;;;;;;;;;5047766;28;20049;-61
2022/05/16 04:38:04;;;;;;;5.97;2.58;;;;;;;;;;5047318;28;20108;-60
2022/05/16 04:40:30;;;;;;;9.38;2.75;;;;;;;;;;5047050;28;20254;-61
2022/05/16 04:42:57;;;;;;;5.82;2.30;;;;;;;;;;5046947;28;20065;-61
2022/05/16 04:45:25;;;;;;;7.82;2.70;;;;;;;;;;5046914;28;20533;-61
2022/05/16 04:47:53;;;;;;;6.95;2.50;;;;;;;;;;5046666;28;20057;-60
2022/05/16 04:50:25;;;;;;;6.03;2.53;;;;;;;;;;5046773;28;20049;-61
2022/05/16 04:52:51;;;;;;;8.00;2.80;;;;;;;;;;5046836;28;20065;-60
2022/05/16 04:55:18;;;;;;;10.70;2.95;;;;;;;;;;5046310;28;20053;-60
2022/05/16 04:57:45;;;;;;;6.85;2.65;;;;;;;;;;5047634;28;20615;-61
2022/05/16 05:00:13;;;;;;;9.70;2.80;;;;;;;;;;5046176;28;20112;-61
2022/05/16 05:02:40;;;;;;;12.88;3.72;;;;;;;;;;5047702;28;20088;-60
2022/05/16 05:05:07;;;;;;;10.80;3.17;;;;;;;;;;5047170;28;20103;-60
2022/05/16 05:07:35;;;;;;;6.53;2.47;;;;;;;;;;5047133;28;20049;-60
2022/05/16 05:15:34;;;;;;;7.13;2.47;;;;;;;;;;5068889;28;20053;-60
2022/05/16 05:18:01;;;;;;;7.85;2.70;;;;;;;;;;5069107;28;20102;-60
2022/05/16 05:20:27;;;;;;;8.93;3.00;;;;;;;;;;5069712;28;20582;-61
2022/05/16 05:22:54;;;;;;;7.72;2.80;;;;;;;;;;5070517;28;20513;-60
2022/05/16 05:25:20;;;;;;;5.93;2.70;;;;;;;;;;5070218;28;20056;-60
2022/05/16 05:27:51;;;;;;;9.75;3.08;;;;;;;;;;5070018;28;20151;-60
2022/05/16 05:30:22;;;;;;;9.27;3.00;;;;;;;;;;5069617;28;20049;-60
2022/05/16 05:32:48;;;;;;;8.45;2.63;;;;;;;;;;5070525;28;20052;-61
2022/05/16 05:35:15;;;;;;;11.35;2.80;;;;;;;;;;5070121;28;20089;-61
2022/05/16 05:37:42;;;;;;;6.50;2.58;;;;;;;;;;5070447;28;20060;-60
2022/05/16 05:40:09;;;;;;;8.63;2.58;;;;;;;;;;5069246;28;20089;-61
2022/05/16 05:42:36;;;;;;;6.50;2.47;;;;;;;;;;5070248;28;20092;-60
2022/05/16 05:45:03;;;;;;;8.23;3.03;;;;;;;;;;5068358;28;20049;-61
2022/05/16 05:47:30;;;;;;;11.32;2.65;;;;;;;;;;5070635;28;20053;-60
2022/05/16 05:49:56;;;;;;;8.95;2.88;;;;;;;;;;5069570;28;20077;-60
2022/05/16 05:52:23;;;;;;;7.70;2.88;;;;;;;;;;5069173;28;20102;-60
2022/05/16 05:54:49;;;;;;;10.10;2.70;;;;;;;;;;5069451;28;20111;-61
2022/05/16 05:57:17;;;;;;;8.68;2.72;;;;;;;;;;5069793;28;20053;-60
2022/05/16 05:59:43;;;;;;;8.18;3.38;;;;;;;;;;5069826;28;20069;-61
2022/05/16 06:02:10;;;;;;;10.68;3.13;;;;;;;;;;5069678;28;20134;-60
2022/05/16 06:04:37;;;;;;;10.45;3.13;;;;;;;;;;5070117;28;20550;-61
2022/05/16 06:07:03;;;;;;;7.30;2.80;;;;;;;;;;5069433;28;20154;-61
2022/05/16 06:09:29;;;;;;;7.00;2.78;;;;;;;;;;5069193;28;20684;-60
2022/05/16 06:11:58;;;;;;;8.65;3.00;;;;;;;;;;5069511;28;20123;-60
2022/05/16 06:14:26;;;;;;;7.32;2.78;;;;;;;;;;5069394;28;20057;-61
2022/05/16 06:16:52;;;;;;;9.18;3.10;;;;;;;;;;5069358;28;20085;-61
2022/05/16 06:19:19;;;;;;;5.30;2.70;;;;;;;;;;5069208;28;20041;-60
2022/05/16 06:21:45;;;;;;;8.05;2.63;;;;;;;;;;5069414;28;20053;-61
2022/05/16 06:26:58;;;;;;;11.38;2.90;;;;;;;;;;5067726;28;20119;-61
2022/05/16 06:29:25;;;;;;;8.65;2.88;;;;;;;;;;5069433;28;20045;-61
2022/05/16 06:31:52;;;;;;;5.47;2.58;;;;;;;;;;5069592;28;20114;-61
2022/05/16 06:34:19;;;;;;;7.33;2.40;;;;;;;;;;5069031;28;20091;-60
2022/05/16 06:36:46;;;;;;;5.47;2.33;;;;;;;;;;5068676;28;20574;-61
2022/05/16 06:39:12;;;;;;;9.80;2.17;;;;;;;;;;5068816;28;20131;-60
2022/05/16 06:41:39;;;;;;;3.88;2.13;;;;;;;;;;5069187;28;20191;-61
2022/05/16 06:44:05;;;;;;;5.15;2.20;;;;;;;;;;5069214;28;20049;-60
2022/05/16 06:46:31;;;;;;;7.10;2.60;;;;;;;;;;5068940;28;20590;-61
2022/05/16 06:48:58;;;;;;;10.48;2.72;;;;;;;;;;5068324;28;20499;-61
2022/05/16 06:51:24;;;;;;;8.60;2.47;;;;;;;;;;5069450;28;20139;-61
2022/05/16 06:53:51;;;;;;;7.68;2.47;;;;;;;;;;5068652;28;20119;-61
2022/05/16 06:56:18;;;;;;;7.03;2.50;;;;;;;;;;5068256;28;20095;-60
2022/05/16 06:58:44;;;;;;;8.07;2.60;;;;;;;;;;5068136;28;20052;-61
2022/05/16 07:01:11;;;;;;;8.15;2.53;;;;;;;;;;5068456;28;20116;-61
2022/05/16 07:03:40;;;;;;;6.00;2.25;;;;;;;;;;5068640;28;20060;-61
2022/05/16 07:06:06;;;;;;;7.60;2.72;;;;;;;;;;5069239;28;20146;-61
2022/05/16 07:08:33;;;;;;;6.38;2.20;;;;;;;;;;5068549;28;20110;-60
2022/05/16 07:10:59;;;;;;;7.82;2.08;;;;;;;;;;5069322;28;20053;-61
2022/05/16 07:13:27;;;;;;;6.82;2.08;;;;;;;;;;5068405;28;20614;-61
2022/05/16 07:15:54;;;;;;;13.77;2.83;;;;;;;;;;5068021;28;20052;-61
2022/05/16 07:18:22;;;;;;;6.93;2.20;;;;;;;;;;5067885;28;20511;-61
2022/05/16 07:20:49;;;;;;;5.95;2.92;;;;;;;;;;5068314;28;20053;-61
2022/05/16 07:23:16;;;;;;;6.00;2.58;;;;;;;;;;5067788;28;20060;-61
2022/05/16 07:28:28;;;;;;;10.90;2.85;;;;;;;;;;5067847;28;20134;-61
2022/05/16 07:30:54;;;;;;;7.82;3.03;;;;;;;;;;5068115;28;20142;-61
2022/05/16 07:33:20;;;;;;;8.63;2.90;;;;;;;;;;5068072;28;20053;-61
2022/05/16 07:35:50;;;;;;;6.15;3.22;;;;;;;;;;5068095;28;20569;-61
2022/05/16 07:38:18;;;;;;;7.35;2.70;;;;;;;;;;5067443;28;20060;-60
2022/05/16 07:40:44;;;;;;;8.25;3.22;;;;;;;;;;5068233;28;20053;-61
2022/05/16 07:43:10;;;;;;;7.05;3.03;;;;;;;;;;5067665;28;20088;-61
2022/05/16 07:45:37;;;;;;;5.05;2.80;;;;;;;;;;5068738;28;20534;-60
2022/05/16 07:48:03;;;;;;;9.10;3.25;;;;;;;;;;5067785;28;20041;-60
2022/05/16 07:50:31;;;;;;;5.03;2.63;;;;;;;;;;5068012;28;20053;-60
2022/05/16 07:52:58;;;;;;;8.23;2.88;;;;;;;;;;5067909;28;20053;-60
2022/05/16 07:55:25;;;;;;;10.38;2.70;;;;;;;;;;5067954;28;20057;-60
2022/05/16 07:57:52;;;;;;;6.40;2.60;;;;;;;;;;5067138;28;20053;-61
2022/05/16 08:00:19;;;;;;;8.02;2.72;;;;;;;;;;5067906;28;20089;-60
2022/05/16 08:02:46;;;;;;;5.43;2.60;;;;;;;;;;5068332;28;20080;-61
2022/05/16 08:05:14;;;;;;;7.43;3.00;;;;;;;;;;5067414;28;20124;-60
2022/05/16 08:10:29;;;;;;;5.82;2.60;;;;;;;;;;5068433;28;20088;-61
2022/05/16 08:13:00;;;;;;;6.10;2.90;;;;;;;;;;5066912;28;20060;-60
2022/05/16 08:15:27;;;;;;;6.65;2.90;;;;;;;;;;5067303;28;20499;-60
2022/05/16 08:17:54;;;;;;;7.05;2.67;;;;;;;;;;5067224;28;20116;-60
2022/05/16 08:20:23;;;;;;;8.80;2.85;;;;;;;;;;5067157;28;20068;-60
2022/05/16 08:22:49;;;;;;;8.68;3.05;;;;;;;;;;5067470;28;20084;-60
2022/05/16 08:25:16;;;;;;;7.45;3.17;;;;;;;;;;5062720;28;20207;-60
2022/05/16 08:27:42;;;;;;;14.68;2.90;;;;;;;;;;5071822;28;20064;-60
2022/05/16 08:30:09;;;;;;;7.60;2.70;;;;;;;;;;5083639;28;20052;-60
2022/05/16 08:32:39;;;;;;;7.68;2.70;;;;;;;;;;5068240;28;20073;-60
2022/05/16 08:35:07;;;;;;;8.07;2.75;;;;;;;;;;5067551;28;20107;-61
2022/05/16 08:40:20;;;;;;;8.02;2.72;;;;;;;;;;5066696;28;20504;-60
2022/05/16 08:43:18;;;;;;;8.10;2.58;;;;;;;;;;5060393;28;20221;-60
2022/05/16 08:45:51;;;;;;;5.18;2.25;;;;;;;;;;5022724;28;20562;-60
2022/05/16 08:48:24;;;;;;;7.90;2.92;;;;;;;;;;5067002;28;20060;-61
2022/05/16 08:50:53;;;;;;;14.73;4.18;;;;;;;;;;5071389;28;20111;-61
2022/05/16 08:53:34;;;;;;;9.95;2.80;;;;;;;;;;5071500;28;20107;-62
2022/05/16 08:56:03;;;;;;;6.15;2.75;;;;;;;;;;5070434;28;20227;-62
2022/05/16 08:58:33;;;;;;;13.95;2.72;;;;;;;;;;5070835;28;20083;-62
2022/05/16 09:01:05;;;;;;;7.57;3.00;;;;;;;;;;5070700;28;20056;-62
2022/05/16 09:03:52;;;;;;;6.75;2.67;;;;;;;;;;5070211;28;20053;-62
2022/05/16 09:06:26;;;;;;;6.28;2.30;;;;;;;;;;5070668;28;20139;-62
2022/05/16 09:08:56;;;;;;;10.68;2.85;;;;;;;;;;5070465;28;20119;-62
2022/05/16 09:11:46;;;;;;;5.15;2.55;;;;;;;;;;5070412;28;20049;-62
2022/05/16 09:14:33;;;;;;;7.15;3.10;;;;;;;;;;5059501;28;20115;-62
2022/05/16 09:17:00;;;;;;;6.88;2.90;;;;;;;;;;5056486;28;20057;-62
2022/05/16 09:19:48;;;;;;;8.00;2.90;;;;;;;;;;5071032;28;20934;-62
2022/05/16 09:22:29;;;;;;;9.00;3.38;;;;;;;;;;5069809;28;20057;-61
2022/05/16 09:24:58;;;;;;;7.78;3.30;;;;;;;;;;5070158;28;20049;-61
2022/05/16 09:30:17;;;;;;;7.28;3.25;;;;;;;;;;5069388;28;20119;-61
2022/05/16 09:32:45;;;;;;;9.27;3.15;;;;;;;;;;5069829;28;20052;-61
2022/05/16 09:35:22;;;;;;;6.50;3.22;;;;;;;;;;5070752;28;20511;-61
2022/05/16 09:37:50;;;;;;;7.32;2.83;;;;;;;;;;5069304;28;20049;-62
2022/05/16 09:40:20;;;;;;;13.30;3.67;;;;;;;;;;5070634;28;20053;-62
2022/05/16 09:42:47;;;;;;;7.80;3.15;;;;;;;;;;5070091;28;20052;-61
2022/05/16 09:45:22;;;;;;;7.15;3.33;;;;;;;;;;5069953;28;20072;-61
2022/05/16 09:47:48;;;;;;;7.32;3.50;;;;;;;;;;5069377;28;20115;-62
2022/05/16 09:50:14;;;;;;;9.07;3.28;;;;;;;;;;5069442;28;20061;-62
2022/05/16 09:52:45;;;;;;;4.90;2.53;;;;;;;;;;5069533;28;20053;-62
2022/05/16 09:55:33;;;;;;;7.72;2.90;;;;;;;;;;5068714;28;20084;-62
2022/05/16 09:58:01;;;;;;;8.30;2.88;;;;;;;;;;5070310;28;20053;-60
2022/05/16 10:00:40;;;;;;;7.32;3.15;;;;;;;;;;5068949;28;20166;-60
2022/05/16 10:03:25;;;;;;;7.70;2.92;;;;;;;;;;5069815;28;20061;-60
2022/05/16 10:05:52;;;;;;;7.70;3.25;;;;;;;;;;5069388;28;20052;-61
2022/05/16 10:08:27;;;;;;;7.78;2.88;;;;;;;;;;5069296;28;20057;-60
2022/05/16 10:10:55;;;;;;;6.25;2.70;;;;;;;;;;5069578;28;20056;-60
2022/05/16 10:13:22;;;;;;;6.55;2.97;;;;;;;;;;5069765;28;20103;-60
2022/05/16 10:15:50;;;;;;;6.53;2.30;;;;;;;;;;5069732;28;20056;-60
2022/05/16 10:18:18;;;;;;;4.43;1.90;;;;;;;;;;5068799;28;20127;-60
2022/05/16 10:20:48;;;;;;;6.18;2.67;;;;;;;;;;5069314;28;20049;-60
2022/05/16 10:23:26;;;;;;;7.40;2.63;;;;;;;;;;5069022;28;20049;-61
2022/05/16 10:25:55;;;;;;;7.28;2.67;;;;;;;;;;5070143;28;20080;-60
2022/05/16 10:28:24;;;;;;;7.13;2.63;;;;;;;;;;5069743;28;20045;-61
2022/05/16 10:33:37;;;;;;;5.43;2.47;;;;;;;;;;5069682;28;20404;-60
2022/05/16 10:36:20;;;;;;;10.82;3.88;;;;;;;;;;5069408;28;20053;-60
2022/05/16 10:38:48;;;;;;;9.32;4.07;;;;;;;;;;5069070;28;20107;-60
2022/05/16 10:41:35;;;;;;;7.00;3.28;;;;;;;;;;5069123;28;20053;-61
2022/05/16 10:44:08;;;;;;;8.32;3.13;;;;;;;;;;5068857;28;20104;-61
2022/05/16 10:46:37;;;;;;;9.82;3.92;;;;;;;;;;5068169;28;20052;-60
2022/05/16 10:49:05;;;;;;;6.32;3.63;;;;;;;;;;5068680;28;20057;-61
2022/05/16 10:51:32;;;;;;;9.48;4.30;;;;;;;;;;5068593;28;20110;-61
2022/05/16 10:54:05;;;;;;;8.90;3.47;;;;;;;;;;5068459;28;20056;-61
2022/05/16 10:56:38;;;;;;;6.40;3.03;;;;;;;;;;5069010;28;20064;-60
2022/05/16 10:59:07;;;;;;;8.85;3.90;;;;;;;;;;5068863;28;20103;-60
2022/05/16 11:01:41;;;;;;;6.63;3.65;;;;;;;;;;5069041;28;20049;-60
2022/05/16 11:04:15;;;;;;;7.20;3.35;;;;;;;;;;5068574;28;20223;-60
2022/05/16 11:07:00;;;;;;;8.30;3.25;;;;;;;;;;5068399;28;20114;-60
2022/05/16 11:09:35;;;;;;;7.05;2.53;;;;;;;;;;5068967;28;20042;-60
2022/05/16 11:12:01;;;;;;;6.65;2.45;;;;;;;;;;5067663;28;20053;-60
2022/05/16 11:14:38;;;;;;;4.25;2.08;;;;;;;;;;5068695;28;20088;-60
2022/05/16 11:17:09;;;;;;;4.25;2.30;;;;;;;;;;5068364;28;20132;-60
2022/05/16 11:19:50;;;;;;;10.32;2.38;;;;;;;;;;5068147;28;20057;-61
2022/05/16 11:22:16;;;;;;;10.55;2.88;;;;;;;;;;5068589;28;20115;-60
2022/05/16 11:25:01;;;;;;;5.47;2.33;;;;;;;;;;5068577;28;20057;-61
2022/05/16 11:27:27;;;;;;;6.10;2.40;;;;;;;;;;5068624;28;20553;-61
2022/05/16 11:30:06;;;;;;;5.57;2.20;;;;;;;;;;5068057;28;20531;-61
2022/05/16 11:32:56;;;;;;;4.90;2.42;;;;;;;;;;5068796;28;20115;-62
2022/05/16 11:35:22;;;;;;;7.50;2.40;;;;;;;;;;5058148;28;20053;-61
2022/05/16 11:38:00;;;;;;;9.20;2.47;;;;;;;;;;5067540;28;20579;-61
2022/05/16 11:40:26;;;;;;;;;;;;;;;;;;5068918;28;20553;-62
2022/05/16 11:43:01;;;;;;;10.35;2.83;;;;;;;;;;5067201;28;41542;-62
2022/05/16 11:45:43;;;;;;;6.22;2.45;;;;;;;;;;5068068;28;20059;-62
2022/05/16 11:48:09;;;;;;;3.90;2.10;;;;;;;;;;5067695;28;20885;-62
2022/05/16 11:51:03;;;;;;;6.68;2.00;;;;;;;;;;5067682;28;20067;-62
2022/05/16 11:53:39;;;;;;;4.82;2.15;;;;;;;;;;5067980;28;20122;-62
2022/05/16 12:02:27;;;;;;;7.00;2.58;;;;;;;;;;5067637;28;20053;-61
2022/05/16 12:05:08;;;;;;;6.72;2.75;;;;;;;;;;4995167;28;20106;-62
2022/05/16 12:07:35;;;;;;;7.75;3.40;;;;;;;;;;5067829;28;20057;-62
2022/05/16 12:10:01;;;;;;;12.45;3.10;;;;;;;;;;5067547;28;20103;-62
2022/05/16 12:12:28;;;;;;;5.88;2.53;;;;;;;;;;5068010;28;20053;-61
2022/05/16 12:15:13;;;;;;;6.15;2.80;;;;;;;;;;5067635;28;20049;-61
2022/05/16 12:17:48;;;;;;;9.52;3.63;;;;;;;;;;5067804;28;20056;-61
2022/05/16 12:20:15;;;;;;;9.07;3.83;;;;;;;;;;5067824;28;20076;-61
2022/05/16 12:22:46;;;;;;;7.70;4.13;;;;;;;;;;5067875;28;20110;-62
2022/05/16 12:25:29;;;;;;;10.18;5.60;;;;;;;;;;5068347;28;20057;-61
2022/05/16 12:28:19;;;;;;;13.63;6.97;;;;;;;;;;5067127;28;20052;-62
2022/05/16 12:30:56;;;;;;;10.77;7.05;;;;;;;;;;5066948;28;20057;-61
2022/05/16 12:33:23;;;;;;;14.27;8.20;;;;;;;;;;5067637;28;20053;-61
2022/05/16 12:35:53;;;;;;;12.88;8.93;;;;;;;;;;5066785;28;20053;-61
2022/05/16 12:38:21;;;;;;;15.57;10.48;;;;;;;;;;5067466;28;20053;-62
2022/05/16 12:41:01;;;;;;;16.75;11.43;;;;;;;;;;5067041;28;20061;-61
2022/05/16 12:43:43;;;;;;;18.75;10.35;;;;;;;;;;5067396;28;20089;-61
2022/05/16 12:46:09;;;;;;;15.85;9.70;;;;;;;;;;5067358;28;20080;-61
2022/05/16 12:48:54;;;;;;;18.33;9.05;;;;;;;;;;5067001;28;20491;-62
2022/05/16 12:51:31;;;;;;;12.52;7.43;;;;;;;;;;5066886;28;20115;-61
2022/05/16 12:54:16;;;;;;;846.58;283.85;;;;;;;;;;5067267;28;20138;-61
2022/05/16 12:56:55;;;;;;;14.35;8.48;;;;;;;;;;5065963;28;20075;-61
2022/05/16 12:59:47;;;;;;;12.30;7.28;;;;;;;;;;5066776;28;20140;-61
2022/05/16 13:02:26;;;;;;;14.57;6.05;;;;;;;;;;5066582;28;20507;-61
2022/05/16 13:05:11;;;;;;;19.40;6.95;;;;;;;;;;5066551;28;20594;-61
2022/05/16 13:07:47;;;;;;;9.05;5.60;;;;;;;;;;5067617;28;20091;-61
2022/05/16 13:10:17;;;;;;;13.15;6.07;;;;;;;;;;5065971;28;20107;-60
2022/05/16 13:13:04;;;;;;;14.43;6.43;;;;;;;;;;5067075;28;20068;-61
2022/05/16 13:15:53;;;;;;;17.40;7.93;;;;;;;;;;5066908;28;20056;-61
2022/05/16 13:18:23;;;;;;;17.50;8.75;;;;;;;;;;5066649;28;20588;-61
2022/05/16 13:20:51;;;;;;;16.90;8.77;;;;;;;;;;5067110;28;20053;-61
2022/05/16 13:23:18;;;;;;;16.58;8.52;;;;;;;;;;5065558;28;20131;-62
2022/05/16 13:31:33;;;;;;;16.73;9.00;;;;;;;;;;5066813;28;20143;-60
2022/05/16 13:34:00;;;;;;;15.68;9.85;;;;;;;;;;5066690;28;20138;-61
2022/05/16 13:36:27;;;;;;;18.57;9.87;;;;;;;;;;5069191;28;20053;-61
2022/05/16 13:38:55;;;;;;;20.05;11.98;;;;;;;;;;5069281;28;20851;-60
2022/05/16 13:41:23;;;;;;;18.95;9.18;;;;;;;;;;5070636;28;20160;-61
2022/05/16 13:43:50;;;;;;;;;;;;;;;;;;5070673;28;20053;-61
2022/05/16 13:46:17;;;;;;;17.15;9.07;;;;;;;;;;5068531;28;45674;-61
2022/05/16 13:48:44;;;;;;;16.38;9.05;;;;;;;;;;5068269;28;20872;-61
2022/05/16 13:51:11;;;;;;;14.68;7.85;;;;;;;;;;5070268;28;20052;-60
2022/05/16 13:53:38;;;;;;;18.05;7.90;;;;;;;;;;5069693;28;20092;-60
2022/05/16 13:56:05;;;;;;;14.13;7.28;;;;;;;;;;5070034;28;20372;-61
2022/05/16 13:58:32;;;;;;;13.73;6.93;;;;;;;;;;5069223;28;20052;-61
2022/05/16 14:01:10;;;;;;;17.42;6.60;;;;;;;;;;5066785;28;20057;-61
2022/05/16 14:03:37;;;;;;;15.40;7.47;;;;;;;;;;5069365;28;20052;-60
2022/05/16 14:06:03;;;;;;;15.65;6.82;;;;;;;;;;5068978;28;20056;-61
2022/05/16 14:08:34;;;;;;;14.82;6.43;;;;;;;;;;5069349;28;20057;-62
2022/05/16 14:11:01;;;;;;;11.27;5.35;;;;;;;;;;5069683;28;20057;-61
2022/05/16 14:13:30;;;;;;;10.10;5.00;;;;;;;;;;5069015;28;20134;-61
2022/05/16 14:16:05;;;;;;;12.30;4.70;;;;;;;;;;5069417;28;20133;-61
2022/05/16 14:18:47;;;;;;;7.88;3.65;;;;;;;;;;5069157;28;20055;-60
2022/05/16 14:21:13;;;;;;;10.65;3.78;;;;;;;;;;5068421;28;20057;-61
2022/05/16 14:23:41;;;;;;;9.80;3.95;;;;;;;;;;5069953;28;20134;-61
2022/05/16 14:26:09;;;;;;;10.57;3.67;;;;;;;;;;5069308;28;20076;-62
2022/05/16 14:28:42;;;;;;;9.88;3.65;;;;;;;;;;5070039;28;20084;-61
2022/05/16 14:31:25;;;;;;;9.15;3.28;;;;;;;;;;5068187;28;20049;-61
2022/05/16 14:33:57;;;;;;;12.65;3.70;;;;;;;;;;5069641;28;20052;-62
2022/05/16 14:36:44;;;;;;;7.75;2.88;;;;;;;;;;5069427;28;20045;-61
2022/05/16 14:39:21;;;;;;;8.45;2.65;;;;;;;;;;5067676;28;20091;-61
2022/05/16 14:41:53;;;;;;;6.80;2.53;;;;;;;;;;5068790;28;20053;-60
2022/05/16 14:44:21;;;;;;;8.63;2.55;;;;;;;;;;5068260;28;20833;-60
2022/05/16 14:46:50;;;;;;;;;;;;;;;;;;5068921;28;20056;-61
2022/05/16 14:49:20;;;;;;;8.15;2.22;;;;;;;;;;5057391;28;44044;-60
2022/05/16 14:51:46;;;;;;;7.73;2.77;;;;;;;;;;5069584;28;20049;-61
2022/05/16 14:54:22;;;;;;;10.13;3.17;;;;;;;;;;5068466;28;20057;-60
2022/05/16 14:56:49;;;;;;;8.38;3.03;;;;;;;;;;5069045;28;20052;-61
2022/05/16 14:59:15;;;;;;;9.20;3.22;;;;;;;;;;5069695;28;20057;-60
2022/05/16 15:04:27;;;;;;;8.77;3.20;;;;;;;;;;5067413;28;20053;-60
2022/05/16 15:06:59;;;;;;;10.10;3.60;;;;;;;;;;5068568;28;20063;-59
2022/05/16 15:09:26;;;;;;;8.32;3.65;;;;;;;;;;5068647;28;20053;-59
2022/05/16 15:11:57;;;;;;;9.32;3.42;;;;;;;;;;5068963;28;20053;-59
2022/05/16 15:14:25;;;;;;;10.43;4.30;;;;;;;;;;5068919;28;20049;-61
2022/05/16 15:16:53;;;;;;;9.07;3.88;;;;;;;;;;5068773;28;20072;-61
2022/05/16 15:19:20;;;;;;;7.88;3.75;;;;;;;;;;5068718;28;20072;-61
2022/05/16 15:21:47;;;;;;;11.30;3.90;;;;;;;;;;5068261;28;20803;-61
2022/05/16 15:24:34;;;;;;;11.07;3.90;;;;;;;;;;5068604;28;20057;-61
2022/05/16 15:27:13;;;;;;;12.10;4.10;;;;;;;;;;5067843;28;20052;-59
2022/05/16 15:29:39;;;;;;;12.05;3.75;;;;;;;;;;5067469;28;20128;-59
2022/05/16 15:32:07;;;;;;;13.10;3.80;;;;;;;;;;5067932;28;20057;-60
2022/05/16 15:34:34;;;;;;;10.15;3.50;;;;;;;;;;5068434;28;20078;-59
2022/05/16 15:37:02;;;;;;;11.47;3.50;;;;;;;;;;5067554;28;20053;-59
2022/05/16 15:39:30;;;;;;;8.88;3.35;;;;;;;;;;5067683;28;20107;-59
2022/05/16 15:41:58;;;;;;;8.50;3.47;;;;;;;;;;5068094;28;20057;-60
2022/05/16 15:44:25;;;;;;;10.32;2.90;;;;;;;;;;5068454;28;20049;-60